CheckWX is a tool to help pilots better visualize weather data.  It is not intended as a substitute for an official pre-flight weather briefing.

11:00:09 UTC

EFRO TAF
Rovaniemi Airport
Rovaniemi, Finland
TAF EFRO 140825Z 1409/1509 28004KT 8000 -SN BKN003 TEMPO 1409/1420 2000 -FZDZ BKN005 TEMPO 1420/1503 0800 FZFG VV001 TEMPO 1503/1508 3000 BR

Oct-14@
09:00 UTC

Oct-14 @ 09:00 UTC

Oct-15@
09:00 UTC

Oct-15 @ 09:00 UTC

TAF EFRO 140825Z 1409/1509 28004KT 8000 -SN BKN003
Wind
  • 280° at 4 KTS
Conditions
Light Snow
Cloud Levels
  • Broken at 300' AGL

Oct-14@
09:00 UTC

Oct-14 @ 09:00 UTC

Oct-14@
20:00 UTC

Oct-14 @ 20:00 UTC

TEMPO 1409/1420 2000 -FZDZ BKN005

Temporary

Temporary Changes expected for less than half the time period

Conditions
Light Freezing Light Drizzle
Cloud Levels
  • Broken at 500' AGL

Oct-14@
20:00 UTC

Oct-14 @ 20:00 UTC

Oct-15@
03:00 UTC

Oct-15 @ 03:00 UTC

TEMPO 1420/1503 0800 FZFG VV001

Temporary

Temporary Changes expected for less than half the time period

Conditions
Freezing Fog
Cloud Levels
  • Vertical visibility at 100' AGL

Oct-15@
03:00 UTC

Oct-15 @ 03:00 UTC

Oct-15@
08:00 UTC

Oct-15 @ 08:00 UTC

TEMPO 1503/1508 3000 BR

Temporary

Temporary Changes expected for less than half the time period

Conditions
Mist